Time;durP1;ratioP1;P1;durP2;ratioP2;P2;SDS_P1;SDS_P2;PMS_P1;PMS_P2;Temp;Humidity;BMP_temperature;BMP_pressure;BME280_temperature;BME280_humidity;BME280_pressure;Samples;Min_cycle;Max_cycle;Signal;HPM_P1;HPM_P2
2022/03/16 00:00:22;;;;;;;37.17;25.88;;;9.70;99.90;;;9.89;78.09;102266.91;5115775;28;20071;-61
2022/03/16 00:02:52;;;;;;;38.58;26.35;;;9.60;99.90;;;9.95;78.49;102267.06;5097062;28;20051;-60
2022/03/16 00:05:21;;;;;;;38.70;26.77;;;9.70;99.90;;;9.81;78.62;102271.16;5115735;28;20047;-61
2022/03/16 00:07:50;;;;;;;41.22;27.30;;;9.60;99.90;;;9.74;79.10;102271.00;5115324;28;20051;-59
2022/03/16 00:10:18;;;;;;;40.75;26.77;;;9.50;99.90;;;9.60;79.88;102270.69;5115587;28;20456;-59
2022/03/16 00:12:46;;;;;;;40.50;28.13;;;9.40;99.90;;;9.62;80.12;102279.53;5097403;28;20143;-59
2022/03/16 00:15:15;;;;;;;40.78;27.55;;;9.30;99.90;;;9.56;80.02;102275.91;5115524;28;20109;-59
2022/03/16 00:17:43;;;;;;;41.53;27.08;;;9.30;99.90;;;9.65;80.40;102273.44;5097058;28;20145;-60
2022/03/16 00:20:13;;;;;;;40.22;26.38;;;9.40;99.90;;;9.74;80.11;102274.53;5096895;28;20086;-59
2022/03/16 00:22:42;;;;;;;37.15;26.33;;;9.40;99.90;;;9.72;80.01;102270.06;5115115;28;20090;-59
2022/03/16 00:25:11;;;;;;;39.28;26.60;;;9.40;99.90;;;9.70;80.13;102272.69;5115303;28;20067;-59
2022/03/16 00:27:40;;;;;;;42.67;27.23;;;9.40;99.90;;;9.63;80.12;102280.44;5115229;28;20040;-60
2022/03/16 00:30:10;;;;;;;36.58;26.42;;;9.40;99.90;;;9.65;80.28;102277.00;5115241;28;20048;-59
2022/03/16 00:32:38;;;;;;;39.67;27.55;;;9.40;99.90;;;9.65;80.69;102271.69;5096780;28;20531;-60
2022/03/16 00:35:07;;;;;;;39.28;26.90;;;9.40;99.90;;;9.81;80.18;102281.72;5114724;28;20035;-59
2022/03/16 00:37:37;;;;;;;37.20;26.27;;;9.50;99.90;;;10.03;79.70;102273.38;5114961;28;20063;-59
2022/03/16 00:40:09;;;;;;;37.13;25.47;;;9.70;99.90;;;9.88;79.08;102245.75;5115226;28;20051;-60
2022/03/16 00:42:38;;;;;;;36.33;25.38;;;9.80;99.90;;;9.91;79.24;102273.13;5115046;28;20308;-59
2022/03/16 00:45:08;;;;;;;38.65;25.75;;;9.70;99.90;;;9.75;79.63;102273.69;5114821;28;20048;-59
2022/03/16 00:47:36;;;;;;;33.85;25.17;;;9.50;99.90;;;9.70;79.86;102277.06;5114878;28;20044;-59
2022/03/16 00:50:06;;;;;;;36.00;24.48;;;9.40;99.90;;;9.64;80.05;102276.97;5114708;28;20418;-59
2022/03/16 00:52:36;;;;;;;35.90;24.73;;;9.40;99.90;;;9.54;80.08;102275.84;5114721;28;20055;-59
2022/03/16 00:55:06;;;;;;;37.53;25.25;;;9.30;99.90;;;9.47;80.72;102268.63;5114694;28;20089;-59
2022/03/16 00:57:34;;;;;;;38.40;25.10;;;9.20;99.90;;;9.50;80.38;102267.84;5114733;28;20063;-59
2022/03/16 01:00:04;;;;;;;39.33;25.67;;;9.20;99.90;;;9.40;80.53;102273.75;5114373;28;20036;-60
2022/03/16 01:02:33;;;;;;;39.78;26.20;;;9.10;99.90;;;9.39;81.29;102264.94;5114551;28;20093;-59
2022/03/16 01:05:01;;;;;;;36.47;24.95;;;9.10;99.90;;;9.35;80.69;102268.34;5113841;28;20473;-59
2022/03/16 01:07:30;;;;;;;35.85;24.83;;;9.10;99.90;;;9.28;80.94;102261.16;5114555;28;20463;-59
2022/03/16 01:10:00;;;;;;;36.33;25.63;;;9.10;99.90;;;9.34;80.78;102256.03;5096149;28;20040;-59
2022/03/16 01:12:28;;;;;;;36.28;25.17;;;9.10;99.90;;;9.44;80.23;102260.66;5114588;28;20036;-59
2022/03/16 01:14:57;;;;;;;41.53;27.35;;;9.20;99.90;;;9.44;80.52;102252.75;5114444;28;20122;-59
2022/03/16 01:17:25;;;;;;;36.10;25.20;;;9.10;99.90;;;9.30;80.50;102254.16;5114131;28;20043;-59
2022/03/16 01:19:57;;;;;;;34.00;25.00;;;9.10;99.90;;;9.30;80.59;102254.16;5096151;28;20047;-59
2022/03/16 01:22:25;;;;;;;36.65;25.85;;;9.00;99.90;;;9.33;81.09;102251.59;5096036;28;20044;-59
2022/03/16 01:24:53;;;;;;;41.70;27.20;;;9.00;99.90;;;9.35;80.37;102247.22;5114375;28;20046;-59
2022/03/16 01:27:23;;;;;;;42.72;27.02;;;9.10;99.90;;;9.35;80.21;102251.66;5114081;28;20150;-59
2022/03/16 01:29:52;;;;;;;40.30;28.50;;;9.10;99.90;;;9.30;80.23;102254.16;5114443;28;20052;-59
2022/03/16 01:32:20;;;;;;;40.60;27.23;;;9.00;99.90;;;9.23;80.46;102248.72;5114560;28;20051;-59
2022/03/16 01:34:49;;;;;;;39.10;26.55;;;9.00;99.90;;;9.35;80.46;102247.22;5114151;28;20500;-59
2022/03/16 01:37:17;;;;;;;39.88;28.58;;;9.10;99.90;;;9.36;80.21;102240.22;5095675;28;20074;-59
2022/03/16 01:39:46;;;;;;;38.28;27.58;;;9.10;99.90;;;9.51;79.81;102245.81;5114156;28;20074;-59
2022/03/16 01:42:14;;;;;;;39.63;27.05;;;9.20;99.90;;;9.55;79.75;102239.75;5114085;28;20104;-61
2022/03/16 01:44:51;;;;;;;42.30;29.55;;;9.30;99.90;;;9.43;79.35;102240.38;5113661;28;20416;-59
2022/03/16 01:47:22;;;;;;;38.10;27.77;;;9.20;99.90;;;9.55;79.24;102248.56;5113973;28;20059;-60
2022/03/16 01:49:52;;;;;;;39.13;27.02;;;9.30;99.90;;;9.49;79.16;102243.16;5114053;28;20051;-59
2022/03/16 01:52:24;;;;;;;38.53;26.27;;;9.20;99.90;;;9.36;79.52;102241.13;5113938;28;20401;-59
2022/03/16 01:54:54;;;;;;;37.38;26.38;;;9.10;99.90;;;9.26;79.71;102239.13;5113545;28;20035;-59
2022/03/16 01:57:23;;;;;;;;;;;9.00;99.90;;;9.09;79.69;102217.63;5096037;28;20505;-59
2022/03/16 01:59:53;;;;;;;39.10;25.70;;;9.00;99.90;;;9.46;79.07;102236.91;5095410;28;20594;-59
2022/03/16 02:02:22;;;;;;;39.33;26.43;;;9.20;99.90;;;9.71;78.34;102231.31;5095374;28;20043;-59
2022/03/16 02:04:51;;;;;;;38.78;26.05;;;9.40;99.90;;;9.95;77.75;102216.84;5095312;28;20063;-60
2022/03/16 02:07:19;;;;;;;42.30;27.63;;;9.60;99.90;;;10.14;76.91;102215.50;5113692;28;20051;-59
2022/03/16 02:09:48;;;;;;;38.90;28.17;;;9.80;99.90;;;10.30;76.11;102214.88;5113657;28;20071;-59
2022/03/16 02:12:16;;;;;;;38.17;27.85;;;10.00;99.90;;;10.40;75.53;102213.28;5113132;28;20507;-60
2022/03/16 02:14:45;;;;;;;40.83;27.48;;;10.10;99.90;;;10.42;75.32;102207.19;5113155;27;20039;-59
2022/03/16 02:17:14;;;;;;;39.03;27.95;;;10.20;99.90;;;10.49;74.80;102216.13;5113025;28;20039;-59
2022/03/16 02:19:43;;;;;;;41.05;28.73;;;10.20;99.90;;;10.46;74.58;102200.19;5113532;28;20067;-59
2022/03/16 02:22:14;;;;;;;39.03;27.80;;;10.30;99.90;;;10.43;74.37;102205.44;5112920;28;20131;-59
2022/03/16 02:24:44;;;;;;;38.58;27.85;;;10.30;99.90;;;10.38;74.78;102196.50;5112926;28;20134;-60
2022/03/16 02:27:12;;;;;;;38.13;27.67;;;10.20;99.90;;;10.22;75.15;102202.41;5113370;28;20047;-60
2022/03/16 02:29:41;;;;;;;40.25;29.08;;;10.10;99.90;;;9.96;75.85;102202.78;5113046;28;20035;-59
2022/03/16 02:32:10;;;;;;;40.20;28.80;;;9.90;99.90;;;9.68;76.48;102205.69;5113251;28;20044;-59
2022/03/16 02:34:38;;;;;;;39.63;28.48;;;9.70;99.90;;;9.66;77.18;102207.41;5112566;28;20043;-59
2022/03/16 02:37:07;;;;;;;42.10;28.30;;;9.50;99.90;;;9.55;77.56;102214.25;5112638;28;20062;-59
2022/03/16 02:39:35;;;;;;;41.53;29.05;;;9.40;99.90;;;9.49;78.08;102216.75;5112560;28;20039;-59
2022/03/16 02:42:06;;;;;;;38.60;27.60;;;9.40;99.90;;;9.25;78.91;102213.59;5112466;28;20122;-59
2022/03/16 02:44:35;;;;;;;42.67;29.40;;;9.20;99.90;;;9.11;79.10;102217.66;5112786;28;20058;-60
2022/03/16 02:47:08;;;;;;;46.63;30.98;;;9.00;99.90;;;9.05;79.97;102209.59;5112724;28;20396;-59
2022/03/16 02:49:37;;;;;;;45.08;30.52;;;8.90;99.90;;;8.93;80.68;102204.91;5112287;28;20422;-59
2022/03/16 02:52:08;;;;;;;46.70;31.02;;;8.80;99.90;;;9.06;80.42;102204.34;5112079;28;20507;-59
2022/03/16 02:54:37;;;;;;;48.90;32.03;;;8.80;99.90;;;8.94;80.85;102201.41;5112105;28;20092;-59
2022/03/16 02:57:07;;;;;;;49.33;31.50;;;8.80;99.90;;;8.87;81.01;102182.75;5112105;28;20122;-59
2022/03/16 02:59:36;;;;;;;44.55;32.05;;;8.80;99.90;;;8.89;81.24;102196.88;5112148;28;20062;-59
2022/03/16 03:02:05;;;;;;;50.00;34.20;;;8.80;99.90;;;8.90;81.41;102185.50;5112227;28;20089;-59
2022/03/16 03:04:34;;;;;;;47.30;32.15;;;8.70;99.90;;;8.86;81.90;102189.81;5112200;28;20087;-59
2022/03/16 03:07:02;;;;;;;52.00;34.40;;;8.70;99.90;;;8.67;82.64;102178.78;5112223;28;20554;-59
2022/03/16 03:09:31;;;;;;;50.55;35.05;;;8.60;99.90;;;8.69;82.97;102179.72;5112020;28;20074;-59
2022/03/16 03:11:59;;;;;;;54.20;35.25;;;8.60;99.90;;;8.65;82.94;102180.47;5112053;28;20138;-59
2022/03/16 03:14:29;;;;;;;51.88;35.70;;;8.50;99.90;;;8.75;83.08;102182.50;5112152;28;20089;-59
2022/03/16 03:16:59;;;;;;;55.40;36.63;;;8.60;99.90;;;8.88;82.89;102177.50;5111848;28;20164;-59
2022/03/16 03:19:28;;;;;;;55.53;36.65;;;8.70;99.90;;;8.77;82.92;102173.75;5111858;28;20035;-59
2022/03/16 03:21:56;;;;;;;52.65;36.13;;;8.60;99.90;;;8.79;83.01;102172.03;5112186;28;20075;-60
2022/03/16 03:24:24;;;;;;;56.50;37.38;;;8.60;99.90;;;8.75;82.75;102161.38;5111898;28;20473;-59
2022/03/16 03:26:54;;;;;;;54.78;37.58;;;8.60;99.90;;;8.77;82.50;102164.91;5111478;28;20052;-59
2022/03/16 03:29:22;;;;;;;53.55;36.20;;;8.60;99.90;;;8.88;82.80;102153.75;5111728;28;20054;-59
2022/03/16 03:31:52;;;;;;;48.65;34.55;;;8.70;99.90;;;8.84;82.29;102159.84;5112179;28;20039;-59
2022/03/16 03:34:21;;;;;;;54.78;35.75;;;8.70;99.90;;;8.81;82.07;102162.41;5112263;28;20427;-59
2022/03/16 03:36:49;;;;;;;50.22;36.42;;;8.70;99.90;;;8.89;82.08;102159.94;5111901;28;20039;-59
2022/03/16 03:39:17;;;;;;;52.38;36.78;;;8.80;99.90;;;8.64;82.56;102168.13;5112113;28;20043;-60
2022/03/16 03:41:46;;;;;;;57.33;37.17;;;8.60;99.90;;;8.36;83.53;102166.59;5111626;28;20131;-59
2022/03/16 03:44:14;;;;;;;56.90;38.17;;;8.30;99.90;;;8.19;84.00;102168.72;5111568;28;20489;-59
2022/03/16 03:46:42;;;;;;;56.42;39.22;;;8.10;99.90;;;8.18;84.60;102160.78;5111821;28;20457;-59
2022/03/16 03:49:12;;;;;;;55.80;37.92;;;8.10;99.90;;;7.97;85.28;102161.13;5111851;28;20070;-59
2022/03/16 03:51:40;;;;;;;57.60;38.67;;;7.90;99.90;;;7.78;86.31;102157.97;5111877;28;20047;-59
2022/03/16 03:54:09;;;;;;;59.72;39.88;;;7.70;99.90;;;7.83;86.48;102164.22;5111617;28;20047;-59
2022/03/16 03:56:37;;;;;;;58.63;39.22;;;7.70;99.90;;;7.78;86.71;102161.47;5111498;28;20047;-63
2022/03/16 03:59:06;;;;;;;57.63;39.90;;;7.60;99.90;;;7.78;87.06;102168.50;5111584;28;20366;-59
2022/03/16 04:01:34;;;;;;;58.72;38.78;;;7.60;99.90;;;7.53;87.85;102174.78;5111515;28;20136;-61
2022/03/16 04:04:02;;;;;;;63.15;40.05;;;7.40;99.90;;;7.56;88.27;102172.25;5111731;28;20077;-58
2022/03/16 04:06:32;;;;;;;58.03;39.83;;;7.40;99.90;;;7.57;88.43;102176.66;5111746;28;20370;-59
2022/03/16 04:09:01;;;;;;;60.53;39.90;;;7.40;99.90;;;7.52;88.07;102167.75;5111470;28;20561;-59
2022/03/16 04:11:29;;;;;;;59.00;38.95;;;7.40;99.90;;;7.41;88.37;102171.81;5111841;28;20047;-58
2022/03/16 04:13:58;;;;;;;57.08;39.10;;;7.40;99.90;;;7.44;88.96;102177.16;5111792;28;20043;-59
2022/03/16 04:16:26;;;;;;;57.15;38.45;;;7.30;99.90;;;7.32;89.62;102177.69;5111427;28;20072;-58
2022/03/16 04:18:55;;;;;;;59.40;39.40;;;7.20;99.90;;;7.14;90.43;102171.00;5112103;28;20538;-60
2022/03/16 04:21:23;;;;;;;57.65;38.25;;;7.00;99.90;;;7.16;90.49;102174.56;5111814;28;20051;-58
2022/03/16 04:23:54;;;;;;;60.08;38.22;;;7.00;99.90;;;7.14;91.13;102181.53;5111623;28;20055;-59
2022/03/16 04:26:22;;;;;;;56.88;36.67;;;7.00;99.90;;;7.17;90.93;102174.63;5111886;28;20039;-58
2022/03/16 04:28:51;;;;;;;55.95;38.28;;;7.00;99.90;;;7.22;90.60;102180.00;5111550;28;20083;-60
2022/03/16 04:31:21;;;;;;;56.85;37.83;;;7.10;99.90;;;7.19;90.71;102179.91;5111610;28;20382;-58
2022/03/16 04:33:49;;;;;;;58.72;37.63;;;7.00;99.90;;;7.26;90.41;102181.88;5111772;28;20041;-59
2022/03/16 04:36:18;;;;;;;57.33;36.35;;;7.10;99.90;;;7.22;90.42;102165.09;5111603;28;20055;-58
2022/03/16 04:38:46;;;;;;;55.33;36.13;;;7.10;99.90;;;7.34;90.14;102161.94;5112537;28;20043;-59
2022/03/16 04:41:16;;;;;;;54.85;37.22;;;7.20;99.90;;;7.21;90.72;102168.59;5115337;28;20074;-58
2022/03/16 04:43:44;;;;;;;53.57;36.40;;;7.10;99.90;;;7.17;90.54;102163.19;5115089;28;20105;-58
2022/03/16 04:46:13;;;;;;;57.75;37.58;;;7.10;99.90;;;7.06;90.66;102144.47;5115143;28;20054;-59
2022/03/16 04:48:41;;;;;;;54.20;37.85;;;7.00;99.90;;;7.24;90.46;102157.25;5096801;28;20107;-58
2022/03/16 04:51:10;;;;;;;50.35;36.10;;;7.10;99.90;;;7.19;90.74;102157.13;5115347;28;20480;-60
2022/03/16 04:53:38;;;;;;;54.42;36.40;;;7.00;99.90;;;7.23;90.61;102160.75;5114838;28;20047;-59
2022/03/16 04:56:06;;;;;;;50.10;35.47;;;7.10;99.90;;;7.08;91.09;102152.41;5114894;28;20505;-58
2022/03/16 04:58:38;;;;;;;48.03;34.53;;;7.00;99.90;;;7.22;90.94;102149.31;5115344;28;20036;-59
2022/03/16 05:01:06;;;;;;;48.72;34.10;;;7.00;99.90;;;7.12;90.63;102151.66;5114807;28;20438;-58
2022/03/16 05:03:34;;;;;;;52.88;35.58;;;7.00;99.90;;;7.02;91.56;102149.56;5114575;28;20051;-59
2022/03/16 05:06:04;;;;;;;50.78;34.53;;;6.90;99.90;;;6.97;91.43;102144.16;5114372;28;20039;-59
2022/03/16 05:08:35;;;;;;;51.00;35.28;;;6.90;99.90;;;7.10;91.01;102142.81;5096279;28;20134;-59
2022/03/16 05:11:04;;;;;;;53.65;36.03;;;7.00;99.90;;;6.97;91.29;102120.50;5114942;28;20039;-58
2022/03/16 05:13:33;;;;;;;51.30;34.45;;;6.90;99.90;;;6.93;91.29;102123.00;5114486;28;20078;-59
2022/03/16 05:16:03;;;;;;;52.60;35.85;;;6.90;99.90;;;7.04;91.37;102137.38;5114224;28;20040;-60
2022/03/16 05:18:31;;;;;;;49.42;35.63;;;6.90;99.90;;;6.94;91.77;102143.19;5114594;28;20066;-59
2022/03/16 05:21:00;;;;;;;47.38;33.65;;;6.80;99.90;;;6.82;91.99;102127.03;5114748;28;20134;-59
2022/03/16 05:23:28;;;;;;;52.45;37.00;;;6.80;99.90;;;6.91;92.32;102145.75;5114032;28;20097;-59
2022/03/16 05:25:57;;;;;;;52.75;37.00;;;6.70;99.90;;;6.87;92.26;102146.47;5114064;28;20149;-59
2022/03/16 05:28:25;;;;;;;51.35;35.50;;;6.70;99.90;;;6.75;92.75;102147.00;5114369;28;20810;-59
2022/03/16 05:30:53;;;;;;;50.35;35.45;;;6.60;99.90;;;6.83;92.83;102142.84;5113858;28;20070;-59
2022/03/16 05:33:24;;;;;;;50.45;35.33;;;6.70;99.90;;;6.72;93.00;102169.63;5113941;28;20153;-59
2022/03/16 05:35:52;;;;;;;51.15;36.40;;;6.60;99.90;;;6.84;92.99;102142.00;5113914;28;20545;-59
2022/03/16 05:38:21;;;;;;;54.78;36.80;;;6.70;99.90;;;6.74;93.05;102141.66;5113769;28;20147;-59
2022/03/16 05:40:49;;;;;;;57.00;36.70;;;6.60;99.90;;;6.75;93.61;102139.09;5114013;28;20066;-59
2022/03/16 05:43:18;;;;;;;52.83;36.20;;;6.60;99.90;;;6.64;93.65;102132.59;5113547;28;20131;-59
2022/03/16 05:45:46;;;;;;;51.22;35.95;;;6.60;99.90;;;6.57;93.92;102140.25;5113530;28;20043;-59
2022/03/16 05:48:14;;;;;;;52.67;36.97;;;6.50;99.90;;;6.50;94.39;102138.28;5113497;28;20043;-59
2022/03/16 05:50:46;;;;;;;52.00;35.83;;;6.40;99.90;;;6.55;94.46;102136.66;5112953;28;20092;-59
2022/03/16 05:53:15;;;;;;;50.30;36.60;;;6.40;99.90;;;6.55;94.63;102137.56;5113442;28;20054;-59
2022/03/16 05:55:43;;;;;;;50.67;37.53;;;6.40;99.90;;;6.58;94.44;102142.91;5113538;28;20118;-59
2022/03/16 05:58:12;;;;;;;53.95;38.22;;;6.40;99.90;;;6.61;94.48;102139.50;5113186;28;20327;-59
2022/03/16 06:00:42;;;;;;;55.60;37.20;;;6.50;99.90;;;6.52;94.51;102128.69;5113256;28;20114;-59
2022/03/16 06:03:11;;;;;;;58.05;40.20;;;6.40;99.90;;;6.43;94.62;102126.66;5113128;28;20075;-59
2022/03/16 06:05:40;;;;;;;53.45;39.03;;;6.40;99.90;;;6.52;95.12;102148.00;5113462;28;20074;-58
2022/03/16 06:08:10;;;;;;;56.08;39.83;;;6.40;99.90;;;6.44;95.54;102135.44;5113219;28;20088;-60
2022/03/16 06:10:39;;;;;;;60.65;40.63;;;6.40;99.90;;;6.52;95.48;102147.09;5113172;28;20044;-60
2022/03/16 06:13:07;;;;;;;58.53;41.15;;;6.40;99.90;;;6.38;95.86;102126.53;5112956;28;20497;-59
2022/03/16 06:15:42;;;;;;;61.55;42.70;;;6.40;99.90;;;6.45;95.98;102145.09;5112931;28;20039;-59
2022/03/16 06:18:12;;;;;;;58.30;41.58;;;6.30;99.90;;;6.50;95.86;102144.44;5113009;28;20478;-59
2022/03/16 06:20:41;;;;;;;56.85;41.40;;;6.40;99.90;;;6.47;96.30;102151.28;5112973;28;20047;-59
2022/03/16 06:23:11;;;;;;;62.33;45.08;;;6.40;99.90;;;6.61;96.20;102150.00;5113133;28;20150;-59
2022/03/16 06:25:41;;;;;;;55.90;40.92;;;6.40;99.90;;;6.69;96.06;102153.78;5113198;28;20048;-59
2022/03/16 06:28:10;;;;;;;62.15;43.65;;;6.50;99.90;;;6.65;95.88;102159.78;5094655;28;20082;-59
2022/03/16 06:30:38;;;;;;;63.70;43.10;;;6.50;99.90;;;6.73;95.40;102161.84;5112528;28;20071;-59
2022/03/16 06:33:07;;;;;;;60.88;42.40;;;6.60;99.90;;;6.89;95.21;102160.56;5112793;28;20346;-59
2022/03/16 06:35:35;;;;;;;59.05;41.20;;;6.70;99.90;;;6.75;95.52;102148.72;5112500;28;20073;-59
2022/03/16 06:38:04;;;;;;;58.75;41.80;;;6.60;99.90;;;6.76;95.02;102155.75;5112323;28;20403;-58
2022/03/16 06:40:33;;;;;;;61.08;41.95;;;6.60;99.90;;;7.00;95.21;102154.81;5112506;28;20122;-58
2022/03/16 06:43:02;;;;;;;59.55;42.00;;;6.80;99.90;;;6.98;94.58;102156.50;5112470;28;20047;-58
2022/03/16 06:45:31;;;;;;;56.05;41.88;;;6.80;99.90;;;6.94;94.17;102167.75;5112660;28;20050;-60
2022/03/16 06:48:02;;;;;;;54.45;41.40;;;6.80;99.90;;;6.86;94.50;102155.19;5112186;28;20051;-58
2022/03/16 06:50:31;;;;;;;58.38;41.10;;;6.70;99.90;;;7.03;94.74;102164.50;5112816;28;20381;-58
2022/03/16 06:53:00;;;;;;;55.70;39.60;;;6.80;99.90;;;7.00;93.99;102164.41;5112540;28;20356;-59
2022/03/16 06:55:28;;;;;;;57.92;41.25;;;6.90;99.90;;;7.06;94.43;102167.25;5112224;28;20489;-59
2022/03/16 06:57:58;;;;;;;51.63;38.50;;;6.90;99.90;;;6.98;94.04;102174.00;5112253;28;20130;-60
2022/03/16 07:00:26;;;;;;;52.63;39.33;;;6.90;99.90;;;7.12;94.30;102163.03;5094251;28;20051;-59
2022/03/16 07:02:57;;;;;;;50.00;37.40;;;6.90;99.90;;;7.13;93.39;102171.84;5111955;28;20142;-59
2022/03/16 07:05:28;;;;;;;54.17;39.55;;;7.00;99.90;;;7.25;93.56;102174.84;5112464;28;20039;-58
2022/03/16 07:07:58;;;;;;;53.42;37.95;;;7.00;99.90;;;7.25;93.65;102164.31;5112832;28;20047;-60
2022/03/16 07:10:27;;;;;;;57.83;39.28;;;7.10;99.90;;;7.23;93.60;102163.38;5112350;28;20047;-59
2022/03/16 07:12:57;;;;;;;52.92;36.75;;;7.10;99.90;;;7.26;93.70;102160.81;5112133;28;20070;-59
2022/03/16 07:15:26;;;;;;;50.87;35.97;;;7.10;99.90;;;7.34;93.27;102163.69;5112300;28;20131;-58
2022/03/16 07:17:55;;;;;;;55.17;39.10;;;7.20;99.90;;;7.54;93.10;102168.69;5112247;28;20402;-59
2022/03/16 07:20:24;;;;;;;50.42;37.05;;;7.30;99.90;;;7.53;92.21;102169.53;5094103;28;20583;-59
2022/03/16 07:23:05;;;;;;;49.03;35.78;;;7.40;99.90;;;7.60;91.88;102153.06;5112188;28;20479;-58
2022/03/16 07:25:38;;;;;;;53.03;38.55;;;7.40;99.90;;;7.56;92.09;102155.56;5112308;28;20044;-59
2022/03/16 07:28:09;;;;;;;50.65;37.28;;;7.40;99.90;;;7.61;92.33;102160.09;5112142;28;20051;-59
2022/03/16 07:30:39;;;;;;;56.20;38.85;;;7.50;99.90;;;7.74;92.92;102145.56;5112060;28;20040;-59
2022/03/16 07:33:08;;;;;;;48.10;36.53;;;7.50;99.90;;;7.66;92.25;102152.34;5112447;28;20400;-59
2022/03/16 07:35:38;;;;;;;47.78;34.92;;;7.50;99.90;;;7.75;91.87;102158.75;5112129;28;20040;-59
2022/03/16 07:38:08;;;;;;;52.25;35.88;;;7.60;99.90;;;7.74;92.41;102150.81;5093716;28;20097;-59
2022/03/16 07:40:37;;;;;;;49.95;37.17;;;7.50;99.90;;;7.83;92.38;102143.16;5112508;28;20044;-57
2022/03/16 07:43:08;;;;;;;47.75;34.65;;;7.60;99.90;;;7.80;91.48;102151.84;5093841;28;20104;-58
2022/03/16 07:45:37;;;;;;;49.03;36.65;;;7.70;99.90;;;7.91;91.87;102133.72;5112252;28;20077;-58
2022/03/16 07:48:06;;;;;;;49.42;36.47;;;7.70;99.90;;;7.94;92.00;102126.78;5112086;28;20044;-59
2022/03/16 07:50:34;;;;;;;50.75;37.25;;;7.70;99.90;;;8.11;90.74;102119.31;5111890;28;20043;-57
2022/03/16 07:53:03;;;;;;;47.63;36.03;;;7.90;99.90;;;7.91;90.36;102145.16;5111877;28;20513;-58
2022/03/16 07:55:32;;;;;;;49.30;37.13;;;7.80;99.90;;;7.93;91.58;102138.19;5112020;28;20147;-58
2022/03/16 07:58:01;;;;;;;50.15;35.88;;;7.70;99.90;;;7.85;91.29;102139.72;5112144;28;20036;-57
2022/03/16 08:00:31;;;;;;;47.25;34.08;;;7.70;99.90;;;7.69;91.05;102153.31;5112297;28;20113;-57
2022/03/16 08:03:01;;;;;;;44.20;33.97;;;7.70;99.90;;;7.84;91.24;102144.97;5112251;28;20036;-57
2022/03/16 08:05:31;;;;;;;50.10;36.22;;;7.70;99.90;;;7.72;91.62;102098.13;5112245;28;20180;-58
2022/03/16 08:08:00;;;;;;;48.38;35.70;;;7.80;99.90;;;7.68;91.41;102096.25;5112379;28;20058;-59
2022/03/16 08:10:28;;;;;;;45.83;33.75;;;7.70;99.90;;;8.02;91.04;102119.97;5093647;28;20130;-58
2022/03/16 08:12:57;;;;;;;49.25;34.55;;;7.90;99.90;;;8.07;90.92;102099.91;5112878;28;20050;-59
2022/03/16 08:15:25;;;;;;;47.53;35.60;;;7.90;99.90;;;8.05;90.92;102098.09;5115866;28;20404;-58
2022/03/16 08:17:55;;;;;;;51.40;34.50;;;7.90;99.90;;;8.03;90.90;102097.16;5115422;28;20131;-59
2022/03/16 08:20:24;;;;;;;41.03;32.03;;;7.90;99.90;;;8.24;90.20;102102.97;5115531;28;20507;-58
2022/03/16 08:22:56;;;;;;;42.17;32.13;;;8.00;99.90;;;8.51;89.20;102111.59;5115753;28;20289;-59
2022/03/16 08:25:44;;;;;;;42.33;31.42;;;8.30;99.90;;;8.48;89.32;102089.53;5115656;28;20079;-58
2022/03/16 08:28:13;;;;;;;43.30;31.77;;;8.40;99.90;;;8.78;89.23;102137.72;5097126;28;20048;-58
2022/03/16 08:30:42;;;;;;;39.90;30.75;;;8.60;99.90;;;9.04;87.97;102115.41;5115158;28;20059;-58
2022/03/16 08:33:12;;;;;;;38.17;28.55;;;8.80;99.90;;;9.11;86.17;102135.81;5115061;28;20115;-58
2022/03/16 08:35:40;;;;;;;38.20;28.53;;;8.90;99.90;;;9.01;86.72;102129.47;5115101;28;20069;-59
2022/03/16 08:38:09;;;;;;;37.33;27.05;;;8.80;99.90;;;9.14;85.54;102125.31;5096709;28;21112;-57
2022/03/16 08:40:37;;;;;;;35.63;26.80;;;9.00;99.90;;;9.01;85.06;102133.84;5115031;28;20051;-57
2022/03/16 08:43:06;;;;;;;34.45;27.08;;;8.80;99.90;;;9.35;86.07;102130.19;5115191;28;20131;-57
2022/03/16 08:45:39;;;;;;;35.65;27.20;;;9.00;99.90;;;9.43;84.00;102134.75;5115155;28;20047;-58
2022/03/16 08:48:08;;;;;;;37.03;27.33;;;9.20;99.90;;;9.74;84.47;102130.94;5115187;28;20051;-59
2022/03/16 08:50:38;;;;;;;36.63;25.02;;;9.50;99.90;;;9.67;82.46;102129.06;5115030;28;20042;-59
2022/03/16 08:53:07;;;;;;;35.10;23.83;;;9.50;99.90;;;9.42;82.62;102126.78;5114652;28;20044;-59
2022/03/16 08:55:35;;;;;;;31.48;23.13;;;9.30;99.90;;;9.52;81.87;102137.59;5114955;28;20048;-59
2022/03/16 08:58:04;;;;;;;30.05;22.42;;;9.30;99.90;;;9.51;81.39;102135.78;5114797;28;20400;-59
2022/03/16 09:00:33;;;;;;;28.20;20.95;;;9.30;99.90;;;9.66;80.60;102135.19;5114691;28;20047;-59
2022/03/16 09:03:02;;;;;;;27.95;22.70;;;9.50;99.90;;;9.73;80.74;102135.38;5114313;28;20488;-59
2022/03/16 09:05:31;;;;;;;27.80;21.80;;;9.50;99.90;;;9.98;80.27;102127.03;5114768;28;20135;-60
2022/03/16 09:08:02;;;;;;;28.30;21.23;;;9.70;99.90;;;9.93;79.63;102127.78;5114502;28;20069;-58
2022/03/16 09:10:31;;;;;;;26.33;20.55;;;9.80;99.90;;;9.77;79.27;102120.47;5114470;28;20489;-59
2022/03/16 09:12:59;;;;;;;28.42;21.90;;;9.70;99.90;;;10.12;79.20;102124.69;5114212;28;20040;-58
2022/03/16 09:15:28;;;;;;;27.33;21.80;;;9.90;99.90;;;10.45;80.18;102134.94;5114698;28;20048;-59
2022/03/16 09:17:56;;;;;;;25.65;20.33;;;10.10;99.90;;;10.26;77.95;102133.72;5114524;28;20062;-59
2022/03/16 09:20:25;;;;;;;24.70;19.98;;;10.10;99.90;;;10.25;77.38;102134.59;5114186;28;20075;-58
2022/03/16 09:22:53;;;;;;;25.95;20.50;;;10.10;99.90;;;10.52;78.26;102139.44;5114499;28;20135;-58
2022/03/16 09:25:25;;;;;;;24.90;19.35;;;10.20;99.90;;;10.68;76.99;102160.00;5113489;28;20048;-58
2022/03/16 09:27:54;;;;;;;29.92;20.17;;;10.50;99.90;;;11.01;77.27;102138.44;5114694;28;20039;-58
2022/03/16 09:30:24;;;;;;;25.77;20.42;;;10.70;99.90;;;10.71;75.25;102112.41;5114010;28;20465;-59
2022/03/16 09:32:58;;;;;;;24.00;19.13;;;10.70;99.90;;;10.99;74.65;102132.22;5114010;28;20039;-58
2022/03/16 09:35:28;;;;;;;25.80;19.90;;;10.80;99.90;;;11.10;75.50;102123.56;5114053;28;20075;-58
2022/03/16 09:37:58;;;;;;;24.47;19.63;;;10.90;99.90;;;11.12;75.28;102140.34;5114530;28;20104;-58
2022/03/16 09:40:28;;;;;;;24.33;19.70;;;10.90;99.90;;;11.13;76.25;102113.00;5114179;28;20057;-58
2022/03/16 09:42:57;;;;;;;24.05;18.52;;;10.90;99.90;;;10.89;74.59;102107.38;5113801;28;20413;-58
2022/03/16 09:45:30;;;;;;;21.92;18.50;;;10.70;99.90;;;10.94;75.25;102076.56;5113640;28;20071;-58
2022/03/16 09:47:59;;;;;;;23.20;17.92;;;10.80;99.90;;;10.94;74.59;102108.31;5113986;28;20048;-59
2022/03/16 09:50:28;;;;;;;23.13;18.13;;;10.80;99.90;;;11.13;74.82;102105.03;5113673;28;20040;-58
2022/03/16 09:52:57;;;;;;;21.45;18.50;;;10.90;99.90;;;11.32;73.84;102136.22;5113640;28;20043;-59
2022/03/16 09:55:27;;;;;;;22.98;18.00;;;11.00;99.90;;;11.06;73.84;102123.50;5114122;28;20051;-59
2022/03/16 09:57:55;;;;;;;24.70;18.33;;;10.90;99.90;;;10.94;73.66;102089.78;5113501;28;20113;-59
2022/03/16 10:00:24;;;;;;;24.25;18.40;;;10.90;99.90;;;11.30;74.44;102105.28;5113677;28;20035;-58
2022/03/16 10:02:54;;;;;;;22.75;18.17;;;11.00;99.90;;;11.37;73.74;102110.66;5113490;28;20043;-59
2022/03/16 10:05:22;;;;;;;22.85;18.33;;;11.10;99.90;;;11.49;73.05;102113.47;5113542;28;20405;-58
2022/03/16 10:07:55;;;;;;;23.83;18.65;;;11.30;99.90;;;11.41;73.31;102107.19;5113705;28;20038;-59
2022/03/16 10:13:21;;;;;;;22.73;19.02;;;11.10;99.90;;;11.79;73.92;102105.00;5113318;28;20094;-58
2022/03/16 10:15:50;;;;;;;27.95;18.00;;;11.40;99.90;;;11.36;72.26;102105.38;5113491;28;20542;-58
2022/03/16 10:18:23;;;;;;;23.15;18.48;;;11.20;99.90;;;11.25;73.59;102086.69;5113271;28;20054;-59
2022/03/16 10:20:52;;;;;;;21.52;17.80;;;11.20;99.90;;;11.34;73.06;102101.81;5113172;28;20105;-59